Goryachiy klyuch, Russia
Current Conditions -  °F | °C
As of 4:30 PM on Thursday 30 Oct 2014 (Local Time) from URKK Reporting Station
Clear Clear  
Wind Chill: 59°   Ceiling: Unl
Heat Index: 59°   Visibility: 6mi
Dew Point: 43°   Wind: 7mph
Humidity: 55%   Direction: 70°ENE
Pressure: 30"   Gusts: NA
Location:  44.63°N, 39.13°E
Report Text: URKK 301330Z 07003MPS CAVOK 15/06 Q1016 NOSIG RMK QFE759 SC070
Loading
Personal Weather Stations






























Interactive Weather Map
Tropical Storm Tracking
New forecast layout! Learn more

10-Day Weather Forecast

Advertisements
Track Severe Weather on mobile